Terminal Aerodrome Forecast
Issued by NWS

Home | Current Version | Previous Version | Text Only | Print | Product List | Glossary On
Versions: 1 2 3 4 5 6 7 8 9 10 11 12 13 14 15 16 17 18 19 20 21 22 23 24 25 26 27 28 29 30
000
FTUS41 KBOX 201136
TAFBED
TAF
KBED 201136Z 2012/2112 05011KT 1/2SM FZRA FG OVC008
     FM201800 36010KT 1SM FZRA BR OVC003
     FM202200 33012G20KT P6SM VCSH OVC003
     FM210000 32011G29KT P6SM OVC008
     FM210600 30013G29KT P6SM SCT025=

USA.gov is the U.S. government's official web portal to all federal, state and local government web resources and services.